sensor_id;sensor_type;location;lat;lon;timestamp;pressure;altitude;pressure_sealevel;temperature;humidity
29569;BME280;16501;51.462;14.346;2023-02-14T00:01:07;102284.50;;;4.45;100.00
29569;BME280;16501;51.462;14.346;2023-02-14T00:03:33;102293.72;;;4.56;100.00
29569;BME280;16501;51.462;14.346;2023-02-14T00:06:06;102287.38;;;4.56;100.00
29569;BME280;16501;51.462;14.346;2023-02-14T00:08:32;102293.66;;;4.49;100.00
29569;BME280;16501;51.462;14.346;2023-02-14T00:10:57;102292.47;;;4.46;100.00
29569;BME280;16501;51.462;14.346;2023-02-14T00:13:22;102281.72;;;4.45;100.00
29569;BME280;16501;51.462;14.346;2023-02-14T00:15:48;102287.28;;;4.45;100.00
29569;BME280;16501;51.462;14.346;2023-02-14T00:18:13;102282.50;;;4.45;100.00
29569;BME280;16501;51.462;14.346;2023-02-14T00:20:38;102283.31;;;4.46;100.00
29569;BME280;16501;51.462;14.346;2023-02-14T00:23:03;102281.75;;;4.48;100.00
29569;BME280;16501;51.462;14.346;2023-02-14T00:25:29;102264.13;;;4.33;100.00
29569;BME280;16501;51.462;14.346;2023-02-14T00:27:54;102236.59;;;4.18;100.00
29569;BME280;16501;51.462;14.346;2023-02-14T00:30:20;102270.97;;;4.40;100.00
29569;BME280;16501;51.462;14.346;2023-02-14T00:32:45;102289.34;;;4.51;100.00
29569;BME280;16501;51.462;14.346;2023-02-14T00:35:11;102280.94;;;4.44;100.00
29569;BME280;16501;51.462;14.346;2023-02-14T00:37:36;102273.72;;;4.40;100.00
29569;BME280;16501;51.462;14.346;2023-02-14T00:40:02;102279.75;;;4.45;100.00
29569;BME280;16501;51.462;14.346;2023-02-14T00:42:27;102291.25;;;4.47;100.00
29569;BME280;16501;51.462;14.346;2023-02-14T00:44:52;102286.50;;;4.44;100.00
29569;BME280;16501;51.462;14.346;2023-02-14T00:47:18;102284.84;;;4.40;100.00
29569;BME280;16501;51.462;14.346;2023-02-14T00:49:43;102276.38;;;4.25;100.00
29569;BME280;16501;51.462;14.346;2023-02-14T00:52:10;102266.69;;;4.12;100.00
29569;BME280;16501;51.462;14.346;2023-02-14T00:54:35;102290.31;;;4.32;100.00
29569;BME280;16501;51.462;14.346;2023-02-14T00:57:01;102287.97;;;4.34;100.00
29569;BME280;16501;51.462;14.346;2023-02-14T00:59:26;102282.41;;;4.34;100.00
29569;BME280;16501;51.462;14.346;2023-02-14T01:01:51;102222.41;;;3.89;100.00
29569;BME280;16501;51.462;14.346;2023-02-14T01:04:17;102282.81;;;4.37;100.00
29569;BME280;16501;51.462;14.346;2023-02-14T01:06:43;102280.41;;;4.35;100.00
29569;BME280;16501;51.462;14.346;2023-02-14T01:09:08;102284.78;;;4.32;100.00
29569;BME280;16501;51.462;14.346;2023-02-14T01:11:33;102241.16;;;3.99;100.00
29569;BME280;16501;51.462;14.346;2023-02-14T01:13:59;102269.13;;;4.17;100.00
29569;BME280;16501;51.462;14.346;2023-02-14T01:16:26;102266.47;;;4.28;100.00
29569;BME280;16501;51.462;14.346;2023-02-14T01:18:52;102281.59;;;4.30;100.00
29569;BME280;16501;51.462;14.346;2023-02-14T01:21:24;102269.66;;;4.30;100.00
29569;BME280;16501;51.462;14.346;2023-02-14T01:23:52;102273.66;;;4.32;100.00
29569;BME280;16501;51.462;14.346;2023-02-14T01:26:18;102263.28;;;4.26;100.00
29569;BME280;16501;51.462;14.346;2023-02-14T01:28:44;102271.31;;;4.34;100.00
29569;BME280;16501;51.462;14.346;2023-02-14T01:31:12;102264.94;;;4.34;100.00
29569;BME280;16501;51.462;14.346;2023-02-14T01:33:40;102265.34;;;4.32;100.00
29569;BME280;16501;51.462;14.346;2023-02-14T01:36:06;102272.88;;;4.32;100.00
29569;BME280;16501;51.462;14.346;2023-02-14T01:38:31;102255.81;;;4.33;100.00
29569;BME280;16501;51.462;14.346;2023-02-14T01:40:57;102253.84;;;4.34;100.00
29569;BME280;16501;51.462;14.346;2023-02-14T01:43:23;102251.84;;;4.34;100.00
29569;BME280;16501;51.462;14.346;2023-02-14T01:45:48;102244.31;;;4.35;100.00
29569;BME280;16501;51.462;14.346;2023-02-14T01:48:14;102241.06;;;4.26;100.00
29569;BME280;16501;51.462;14.346;2023-02-14T01:50:44;102250.19;;;4.26;100.00
29569;BME280;16501;51.462;14.346;2023-02-14T01:53:23;102254.56;;;4.27;100.00
29569;BME280;16501;51.462;14.346;2023-02-14T01:55:58;102244.13;;;4.17;100.00
29569;BME280;16501;51.462;14.346;2023-02-14T01:58:28;102225.72;;;4.02;100.00
29569;BME280;16501;51.462;14.346;2023-02-14T02:00:56;102250.50;;;4.21;100.00
29569;BME280;16501;51.462;14.346;2023-02-14T02:03:28;102242.53;;;4.16;100.00
29569;BME280;16501;51.462;14.346;2023-02-14T02:06:07;102248.56;;;4.22;100.00
29569;BME280;16501;51.462;14.346;2023-02-14T02:08:39;102208.25;;;3.97;100.00
29569;BME280;16501;51.462;14.346;2023-02-14T02:11:06;102248.19;;;4.23;100.00
29569;BME280;16501;51.462;14.346;2023-02-14T02:13:32;102247.38;;;4.23;100.00
29569;BME280;16501;51.462;14.346;2023-02-14T02:16:16;102242.63;;;4.23;100.00
29569;BME280;16501;51.462;14.346;2023-02-14T02:21:38;102237.88;;;4.24;100.00
29569;BME280;16501;51.462;14.346;2023-02-14T02:24:14;102238.66;;;4.24;100.00
29569;BME280;16501;51.462;14.346;2023-02-14T02:27:10;102235.09;;;4.24;100.00
29569;BME280;16501;51.462;14.346;2023-02-14T02:36:24;102230.66;;;4.19;100.00
29569;BME280;16501;51.462;14.346;2023-02-14T02:41:44;102197.81;;;3.87;100.00
29569;BME280;16501;51.462;14.346;2023-02-14T02:44:33;102243.31;;;4.13;100.00
29569;BME280;16501;51.462;14.346;2023-02-14T02:47:27;102252.84;;;4.15;100.00
29569;BME280;16501;51.462;14.346;2023-02-14T02:53:04;102243.38;;;4.20;100.00
29569;BME280;16501;51.462;14.346;2023-02-14T02:55:49;102237.00;;;4.20;100.00
29569;BME280;16501;51.462;14.346;2023-02-14T02:58:40;102238.97;;;4.15;100.00
29569;BME280;16501;51.462;14.346;2023-02-14T03:01:19;102234.63;;;4.18;100.00
29569;BME280;16501;51.462;14.346;2023-02-14T03:03:49;102227.81;;;4.12;100.00
29569;BME280;16501;51.462;14.346;2023-02-14T03:06:35;102215.00;;;4.00;100.00
29569;BME280;16501;51.462;14.346;2023-02-14T03:11:51;102233.34;;;4.08;100.00
29569;BME280;16501;51.462;14.346;2023-02-14T03:14:32;102243.69;;;4.11;100.00
29569;BME280;16501;51.462;14.346;2023-02-14T03:17:06;102254.38;;;4.09;100.00
29569;BME280;16501;51.462;14.346;2023-02-14T03:19:59;102250.00;;;4.08;100.00
29569;BME280;16501;51.462;14.346;2023-02-14T03:26:11;102246.38;;;4.04;100.00
29569;BME280;16501;51.462;14.346;2023-02-14T03:28:46;102250.38;;;4.07;100.00
29569;BME280;16501;51.462;14.346;2023-02-14T03:31:35;102243.16;;;4.02;100.00
29569;BME280;16501;51.462;14.346;2023-02-14T03:34:12;102227.25;;;3.95;100.00
29569;BME280;16501;51.462;14.346;2023-02-14T03:36:49;102257.09;;;4.06;100.00
29569;BME280;16501;51.462;14.346;2023-02-14T03:42:15;102244.75;;;4.00;100.00
29569;BME280;16501;51.462;14.346;2023-02-14T03:44:44;102245.56;;;4.04;100.00
29569;BME280;16501;51.462;14.346;2023-02-14T03:47:15;102193.59;;;3.67;100.00
29569;BME280;16501;51.462;14.346;2023-02-14T03:49:46;102245.13;;;3.98;100.00
29569;BME280;16501;51.462;14.346;2023-02-14T03:52:18;102243.13;;;3.99;100.00
29569;BME280;16501;51.462;14.346;2023-02-14T03:54:47;102244.69;;;3.96;100.00
29569;BME280;16501;51.462;14.346;2023-02-14T03:59:54;102241.47;;;3.90;100.00
29569;BME280;16501;51.462;14.346;2023-02-14T04:02:27;102247.44;;;3.92;100.00
29569;BME280;16501;51.462;14.346;2023-02-14T04:04:57;102232.66;;;3.85;100.00
29569;BME280;16501;51.462;14.346;2023-02-14T04:07:25;102245.06;;;3.94;100.00
29569;BME280;16501;51.462;14.346;2023-02-14T04:09:50;102256.22;;;3.98;100.00
29569;BME280;16501;51.462;14.346;2023-02-14T04:12:17;102173.53;;;3.43;100.00
29569;BME280;16501;51.462;14.346;2023-02-14T04:14:43;102252.59;;;3.94;100.00
29569;BME280;16501;51.462;14.346;2023-02-14T04:17:08;102247.88;;;3.98;100.00
29569;BME280;16501;51.462;14.346;2023-02-14T04:19:52;102262.06;;;3.89;100.00
29569;BME280;16501;51.462;14.346;2023-02-14T04:22:17;102244.66;;;3.92;100.00
29569;BME280;16501;51.462;14.346;2023-02-14T04:24:43;102217.16;;;3.80;100.00
29569;BME280;16501;51.462;14.346;2023-02-14T04:27:09;102243.00;;;3.88;100.00
29569;BME280;16501;51.462;14.346;2023-02-14T04:29:41;102186.28;;;3.51;100.00
29569;BME280;16501;51.462;14.346;2023-02-14T04:32:12;102205.75;;;3.55;100.00
29569;BME280;16501;51.462;14.346;2023-02-14T04:34:38;102234.94;;;3.75;100.00
29569;BME280;16501;51.462;14.346;2023-02-14T04:37:04;102223.75;;;3.68;100.00
29569;BME280;16501;51.462;14.346;2023-02-14T04:39:29;102236.06;;;3.71;100.00
29569;BME280;16501;51.462;14.346;2023-02-14T04:41:55;102207.81;;;3.62;100.00
29569;BME280;16501;51.462;14.346;2023-02-14T04:44:20;102228.25;;;3.80;100.00
29569;BME280;16501;51.462;14.346;2023-02-14T04:46:46;102194.63;;;3.55;100.00
29569;BME280;16501;51.462;14.346;2023-02-14T04:49:13;102219.03;;;3.72;100.00
29569;BME280;16501;51.462;14.346;2023-02-14T04:51:38;102190.75;;;3.59;100.00
29569;BME280;16501;51.462;14.346;2023-02-14T04:54:03;102216.78;;;3.82;100.00
29569;BME280;16501;51.462;14.346;2023-02-14T04:56:29;102202.38;;;3.72;100.00
29569;BME280;16501;51.462;14.346;2023-02-14T04:58:54;102148.81;;;3.34;100.00
29569;BME280;16501;51.462;14.346;2023-02-14T05:01:20;102176.09;;;3.59;100.00
29569;BME280;16501;51.462;14.346;2023-02-14T05:03:45;102203.69;;;3.82;100.00
29569;BME280;16501;51.462;14.346;2023-02-14T05:06:11;102200.13;;;3.82;100.00
29569;BME280;16501;51.462;14.346;2023-02-14T05:08:37;102195.34;;;3.78;100.00
29569;BME280;16501;51.462;14.346;2023-02-14T05:11:07;102198.56;;;3.84;100.00
29569;BME280;16501;51.462;14.346;2023-02-14T05:13:33;102180.56;;;3.71;100.00
29569;BME280;16501;51.462;14.346;2023-02-14T05:15:59;102198.53;;;3.81;100.00
29569;BME280;16501;51.462;14.346;2023-02-14T05:18:24;102192.97;;;3.81;100.00
29569;BME280;16501;51.462;14.346;2023-02-14T05:20:52;102191.00;;;3.81;100.00
29569;BME280;16501;51.462;14.346;2023-02-14T05:23:19;102186.59;;;3.76;100.00
29569;BME280;16501;51.462;14.346;2023-02-14T05:25:46;102139.03;;;3.44;100.00
29569;BME280;16501;51.462;14.346;2023-02-14T05:28:12;102189.78;;;3.78;100.00
29569;BME280;16501;51.462;14.346;2023-02-14T05:30:37;102192.19;;;3.80;100.00
29569;BME280;16501;51.462;14.346;2023-02-14T05:33:03;102140.50;;;3.34;100.00
29569;BME280;16501;51.462;14.346;2023-02-14T05:35:30;102204.88;;;3.81;100.00
29569;BME280;16501;51.462;14.346;2023-02-14T05:37:55;102204.44;;;3.79;100.00
29569;BME280;16501;51.462;14.346;2023-02-14T05:40:21;102173.59;;;3.50;100.00
29569;BME280;16501;51.462;14.346;2023-02-14T05:42:46;102197.31;;;3.78;100.00
29569;BME280;16501;51.462;14.346;2023-02-14T05:45:11;102201.69;;;3.79;100.00
29569;BME280;16501;51.462;14.346;2023-02-14T05:47:37;102201.25;;;3.77;100.00
29569;BME280;16501;51.462;14.346;2023-02-14T05:50:03;102187.25;;;3.66;100.00
29569;BME280;16501;51.462;14.346;2023-02-14T05:52:29;102198.41;;;3.70;100.00
29569;BME280;16501;51.462;14.346;2023-02-14T05:54:54;102207.97;;;3.76;100.00
29569;BME280;16501;51.462;14.346;2023-02-14T05:57:19;102113.31;;;3.13;100.00
29569;BME280;16501;51.462;14.346;2023-02-14T05:59:45;102191.88;;;3.55;100.00
29569;BME280;16501;51.462;14.346;2023-02-14T06:02:10;102185.50;;;3.51;100.00
29569;BME280;16501;51.462;14.346;2023-02-14T06:04:35;102218.25;;;3.72;100.00
29569;BME280;16501;51.462;14.346;2023-02-14T06:07:01;102221.44;;;3.74;100.00
29569;BME280;16501;51.462;14.346;2023-02-14T06:09:28;102223.47;;;3.77;100.00
29569;BME280;16501;51.462;14.346;2023-02-14T06:11:53;102203.09;;;3.66;100.00
29569;BME280;16501;51.462;14.346;2023-02-14T06:14:18;102232.63;;;3.81;100.00
29569;BME280;16501;51.462;14.346;2023-02-14T06:16:44;102227.41;;;3.76;100.00
29569;BME280;16501;51.462;14.346;2023-02-14T06:19:11;102226.56;;;3.72;100.00
29569;BME280;16501;51.462;14.346;2023-02-14T06:21:37;102219.75;;;3.66;100.00
29569;BME280;16501;51.462;14.346;2023-02-14T06:24:02;102235.69;;;3.72;100.00
29569;BME280;16501;51.462;14.346;2023-02-14T06:26:29;102186.53;;;3.39;100.00
29569;BME280;16501;51.462;14.346;2023-02-14T06:28:56;102231.69;;;3.70;100.00
29569;BME280;16501;51.462;14.346;2023-02-14T06:31:23;102222.88;;;3.61;100.00
29569;BME280;16501;51.462;14.346;2023-02-14T06:33:49;102232.44;;;3.67;100.00
29569;BME280;16501;51.462;14.346;2023-02-14T06:36:14;102234.47;;;3.70;100.00
29569;BME280;16501;51.462;14.346;2023-02-14T06:38:41;102240.03;;;3.70;100.00
29569;BME280;16501;51.462;14.346;2023-02-14T06:41:07;102211.69;;;3.57;100.00
29569;BME280;16501;51.462;14.346;2023-02-14T06:43:34;102209.66;;;3.50;100.00
29569;BME280;16501;51.462;14.346;2023-02-14T06:46:00;102221.59;;;3.54;100.00
29569;BME280;16501;51.462;14.346;2023-02-14T06:48:25;102234.44;;;3.66;100.00
29569;BME280;16501;51.462;14.346;2023-02-14T06:50:51;102215.94;;;3.47;100.00
29569;BME280;16501;51.462;14.346;2023-02-14T06:53:18;102186.84;;;3.34;100.00
29569;BME280;16501;51.462;14.346;2023-02-14T06:55:45;102229.22;;;3.61;100.00
29569;BME280;16501;51.462;14.346;2023-02-14T06:58:11;102239.56;;;3.64;100.00
29569;BME280;16501;51.462;14.346;2023-02-14T07:00:36;102223.66;;;3.61;100.00
29569;BME280;16501;51.462;14.346;2023-02-14T07:03:05;102241.94;;;3.66;100.00
29569;BME280;16501;51.462;14.346;2023-02-14T07:05:31;102236.00;;;3.67;100.00
29569;BME280;16501;51.462;14.346;2023-02-14T07:07:57;102219.66;;;3.58;100.00
29569;BME280;16501;51.462;14.346;2023-02-14T07:10:22;102222.97;;;3.68;100.00
29569;BME280;16501;51.462;14.346;2023-02-14T07:12:48;102239.69;;;3.75;100.00
29569;BME280;16501;51.462;14.346;2023-02-14T07:15:16;102230.84;;;3.66;100.00
29569;BME280;16501;51.462;14.346;2023-02-14T07:17:41;102235.69;;;3.72;100.00
29569;BME280;16501;51.462;14.346;2023-02-14T07:20:08;102240.06;;;3.73;100.00
29569;BME280;16501;51.462;14.346;2023-02-14T07:22:35;102205.78;;;3.58;100.00
29569;BME280;16501;51.462;14.346;2023-02-14T07:25:01;102193.44;;;3.52;100.00
29569;BME280;16501;51.462;14.346;2023-02-14T07:27:26;102232.63;;;3.81;100.00
29569;BME280;16501;51.462;14.346;2023-02-14T07:29:52;102239.72;;;3.78;100.00
29569;BME280;16501;51.462;14.346;2023-02-14T07:32:17;102213.44;;;3.69;100.00
29569;BME280;16501;51.462;14.346;2023-02-14T07:34:42;102170.31;;;3.41;100.00
29569;BME280;16501;51.462;14.346;2023-02-14T07:37:07;102237.09;;;3.89;100.00
29569;BME280;16501;51.462;14.346;2023-02-14T07:39:33;102221.09;;;3.79;100.00
29569;BME280;16501;51.462;14.346;2023-02-14T07:41:58;102220.34;;;3.82;100.00
29569;BME280;16501;51.462;14.346;2023-02-14T07:44:24;102239.84;;;3.89;100.00
29569;BME280;16501;51.462;14.346;2023-02-14T07:46:49;102230.38;;;3.90;100.00
29569;BME280;16501;51.462;14.346;2023-02-14T07:49:16;102239.81;;;3.86;100.00
29569;BME280;16501;51.462;14.346;2023-02-14T07:51:41;102237.03;;;3.86;100.00
29569;BME280;16501;51.462;14.346;2023-02-14T07:54:07;102240.59;;;3.86;100.00
29569;BME280;16501;51.462;14.346;2023-02-14T07:56:32;102231.06;;;3.84;100.00
29569;BME280;16501;51.462;14.346;2023-02-14T07:58:58;102230.28;;;3.83;100.00
29569;BME280;16501;51.462;14.346;2023-02-14T08:01:24;102230.28;;;3.83;100.00
29569;BME280;16501;51.462;14.346;2023-02-14T08:03:50;102235.88;;;3.87;100.00
29569;BME280;16501;51.462;14.346;2023-02-14T08:06:17;102195.06;;;3.57;100.00
29569;BME280;16501;51.462;14.346;2023-02-14T08:08:44;102223.84;;;3.75;100.00
29569;BME280;16501;51.462;14.346;2023-02-14T08:11:12;102227.88;;;3.82;100.00
29569;BME280;16501;51.462;14.346;2023-02-14T08:13:58;102236.22;;;3.82;100.00
29569;BME280;16501;51.462;14.346;2023-02-14T08:16:24;102224.13;;;3.67;100.00
29569;BME280;16501;51.462;14.346;2023-02-14T08:18:50;102237.34;;;3.77;100.00
29569;BME280;16501;51.462;14.346;2023-02-14T08:21:15;102222.91;;;3.64;100.00
29569;BME280;16501;51.462;14.346;2023-02-14T08:23:41;102235.75;;;3.80;100.00
29569;BME280;16501;51.462;14.346;2023-02-14T08:26:07;102239.81;;;3.86;100.00
29569;BME280;16501;51.462;14.346;2023-02-14T08:28:32;102245.31;;;3.82;100.00
29569;BME280;16501;51.462;14.346;2023-02-14T08:31:00;102249.00;;;3.93;100.00
29569;BME280;16501;51.462;14.346;2023-02-14T08:33:25;102249.47;;;3.95;100.00
29569;BME280;16501;51.462;14.346;2023-02-14T08:35:50;102243.91;;;3.95;100.00
29569;BME280;16501;51.462;14.346;2023-02-14T08:38:16;102242.66;;;3.93;100.00
29569;BME280;16501;51.462;14.346;2023-02-14T08:40:42;102243.41;;;3.90;100.00
29569;BME280;16501;51.462;14.346;2023-02-14T08:43:08;102250.97;;;3.89;100.00
29569;BME280;16501;51.462;14.346;2023-02-14T08:45:34;102250.59;;;3.91;100.00
29569;BME280;16501;51.462;14.346;2023-02-14T08:48:06;102260.53;;;3.92;100.00
29569;BME280;16501;51.462;14.346;2023-02-14T08:50:31;102254.53;;;3.90;100.00
29569;BME280;16501;51.462;14.346;2023-02-14T08:52:57;102258.91;;;3.91;100.00
29569;BME280;16501;51.462;14.346;2023-02-14T08:55:22;102248.16;;;3.86;100.00
29569;BME280;16501;51.462;14.346;2023-02-14T08:57:48;102264.53;;;3.98;100.00
29569;BME280;16501;51.462;14.346;2023-02-14T09:00:14;102136.25;;;3.10;100.00
29569;BME280;16501;51.462;14.346;2023-02-14T09:02:39;102261.41;;;4.00;100.00
29569;BME280;16501;51.462;14.346;2023-02-14T09:05:05;102255.38;;;3.94;100.00
29569;BME280;16501;51.462;14.346;2023-02-14T09:07:32;102255.88;;;4.03;100.00
29569;BME280;16501;51.462;14.346;2023-02-14T09:09:58;102254.31;;;4.06;100.00
29569;BME280;16501;51.462;14.346;2023-02-14T09:12:23;102219.22;;;3.87;100.00
29569;BME280;16501;51.462;14.346;2023-02-14T09:14:49;102257.56;;;4.11;100.00
29569;BME280;16501;51.462;14.346;2023-02-14T09:17:14;102211.69;;;3.87;100.00
29569;BME280;16501;51.462;14.346;2023-02-14T09:19:40;102251.13;;;4.04;100.00
29569;BME280;16501;51.462;14.346;2023-02-14T09:22:07;102208.84;;;3.80;100.00
29569;BME280;16501;51.462;14.346;2023-02-14T09:24:37;102264.75;;;4.16;100.00
29569;BME280;16501;51.462;14.346;2023-02-14T09:27:03;102250.25;;;3.96;100.00
29569;BME280;16501;51.462;14.346;2023-02-14T09:29:30;102268.97;;;4.03;100.00
29569;BME280;16501;51.462;14.346;2023-02-14T09:31:58;102273.31;;;4.04;100.00
29569;BME280;16501;51.462;14.346;2023-02-14T09:34:26;102279.69;;;4.04;100.00
29569;BME280;16501;51.462;14.346;2023-02-14T09:36:51;102253.34;;;3.91;100.00
29569;BME280;16501;51.462;14.346;2023-02-14T09:39:17;102279.28;;;4.06;100.00
29569;BME280;16501;51.462;14.346;2023-02-14T09:41:52;102276.50;;;4.06;100.00
29569;BME280;16501;51.462;14.346;2023-02-14T09:44:32;102249.31;;;3.85;100.00
29569;BME280;16501;51.462;14.346;2023-02-14T09:47:14;102251.72;;;3.86;100.00
29569;BME280;16501;51.462;14.346;2023-02-14T09:49:44;102274.53;;;4.03;100.00
29569;BME280;16501;51.462;14.346;2023-02-14T09:52:13;102254.16;;;3.91;100.00
29569;BME280;16501;51.462;14.346;2023-02-14T09:54:42;102278.13;;;4.07;100.00
29569;BME280;16501;51.462;14.346;2023-02-14T10:00:19;102276.28;;;4.18;100.00
29569;BME280;16501;51.462;14.346;2023-02-14T10:03:02;102282.19;;;4.13;100.00
29569;BME280;16501;51.462;14.346;2023-02-14T10:05:43;102285.66;;;4.06;100.00
29569;BME280;16501;51.462;14.346;2023-02-14T10:10:54;102254.84;;;3.85;100.00
29569;BME280;16501;51.462;14.346;2023-02-14T10:13:31;102282.47;;;4.04;100.00
29569;BME280;16501;51.462;14.346;2023-02-14T10:16:21;102276.50;;;4.06;100.00
29569;BME280;16501;51.462;14.346;2023-02-14T10:21:39;102272.56;;;4.07;100.00
29569;BME280;16501;51.462;14.346;2023-02-14T10:24:17;102248.19;;;3.89;100.00
29569;BME280;16501;51.462;14.346;2023-02-14T10:26:47;102270.97;;;4.06;100.00
29569;BME280;16501;51.462;14.346;2023-02-14T10:29:15;102270.19;;;4.05;100.00
29569;BME280;16501;51.462;14.346;2023-02-14T10:35:03;102228.78;;;3.93;100.00
29569;BME280;16501;51.462;14.346;2023-02-14T10:38:07;102264.75;;;4.16;100.00
29569;BME280;16501;51.462;14.346;2023-02-14T10:41:03;102269.50;;;4.15;100.00
29569;BME280;16501;51.462;14.346;2023-02-14T10:54:24;102265.19;;;4.18;100.00
29569;BME280;16501;51.462;14.346;2023-02-14T10:57:00;102255.66;;;4.19;100.00
29569;BME280;16501;51.462;14.346;2023-02-14T10:59:54;102218.03;;;3.88;100.00
29569;BME280;16501;51.462;14.346;2023-02-14T11:02:22;102265.59;;;4.20;100.00
29569;BME280;16501;51.462;14.346;2023-02-14T11:04:49;102264.41;;;4.21;100.00
29569;BME280;16501;51.462;14.346;2023-02-14T11:07:17;102262.06;;;4.23;100.00
29569;BME280;16501;51.462;14.346;2023-02-14T11:09:46;102256.09;;;4.25;100.00
29569;BME280;16501;51.462;14.346;2023-02-14T11:12:30;102249.75;;;4.24;100.00
29569;BME280;16501;51.462;14.346;2023-02-14T11:17:41;102244.28;;;4.31;100.00
29569;BME280;16501;51.462;14.346;2023-02-14T11:20:27;102244.28;;;4.31;100.00
29569;BME280;16501;51.462;14.346;2023-02-14T11:22:55;102223.13;;;4.20;100.00
29569;BME280;16501;51.462;14.346;2023-02-14T11:25:26;102240.38;;;4.36;100.00
29569;BME280;16501;51.462;14.346;2023-02-14T11:28:04;102235.94;;;4.31;100.00
29569;BME280;16501;51.462;14.346;2023-02-14T11:30:40;102237.22;;;4.38;100.00
29569;BME280;16501;51.462;14.346;2023-02-14T11:36:01;102231.28;;;4.39;100.00
29569;BME280;16501;51.462;14.346;2023-02-14T11:38:55;102238.44;;;4.44;100.00
29569;BME280;16501;51.462;14.346;2023-02-14T11:41:22;102225.59;;;4.28;100.00
29569;BME280;16501;51.462;14.346;2023-02-14T11:43:47;102226.88;;;4.34;100.00
29569;BME280;16501;51.462;14.346;2023-02-14T11:49:05;102227.75;;;4.46;100.00
29569;BME280;16501;51.462;14.346;2023-02-14T11:51:34;102204.22;;;4.32;100.00
29569;BME280;16501;51.462;14.346;2023-02-14T11:54:02;102223.84;;;4.50;100.00
29569;BME280;16501;51.462;14.346;2023-02-14T11:56:50;102183.94;;;4.28;100.00
29569;BME280;16501;51.462;14.346;2023-02-14T11:59:31;102211.94;;;4.50;100.00
29569;BME280;16501;51.462;14.346;2023-02-14T12:02:00;102189.59;;;4.36;100.00
29569;BME280;16501;51.462;14.346;2023-02-14T12:04:33;102180.75;;;4.26;100.00
29569;BME280;16501;51.462;14.346;2023-02-14T12:07:20;102213.59;;;4.58;100.00
29569;BME280;16501;51.462;14.346;2023-02-14T12:10:28;102204.81;;;4.56;100.00
29569;BME280;16501;51.462;14.346;2023-02-14T12:13:00;102212.84;;;4.65;100.00
29569;BME280;16501;51.462;14.346;2023-02-14T12:26:28;102189.47;;;4.69;100.00
29569;BME280;16501;51.462;14.346;2023-02-14T12:31:46;102157.53;;;4.49;100.00
29569;BME280;16501;51.462;14.346;2023-02-14T12:34:13;102187.03;;;4.64;100.00
29569;BME280;16501;51.462;14.346;2023-02-14T12:39:19;102158.31;;;4.46;100.00
29569;BME280;16501;51.462;14.346;2023-02-14T12:41:57;102166.72;;;4.53;100.00
29569;BME280;16501;51.462;14.346;2023-02-14T12:44:50;102173.09;;;4.57;100.00
29569;BME280;16501;51.462;14.346;2023-02-14T12:47:45;102158.00;;;4.55;100.00
29569;BME280;16501;51.462;14.346;2023-02-14T12:50:45;102163.22;;;4.63;100.00
29569;BME280;16501;51.462;14.346;2023-02-14T12:53:26;102132.59;;;4.56;100.00
29569;BME280;16501;51.462;14.346;2023-02-14T12:58:48;102155.72;;;4.67;100.00
29569;BME280;16501;51.462;14.346;2023-02-14T13:07:02;102126.25;;;4.56;100.00
29569;BME280;16501;51.462;14.346;2023-02-14T13:12:34;102135.16;;;4.79;100.00
29569;BME280;16501;51.462;14.346;2023-02-14T13:15:27;102140.69;;;4.76;100.00
29569;BME280;16501;51.462;14.346;2023-02-14T13:18:14;102135.94;;;4.80;100.00
29569;BME280;16501;51.462;14.346;2023-02-14T13:20:52;102129.97;;;4.74;100.00
29569;BME280;16501;51.462;14.346;2023-02-14T13:23:40;102050.59;;;4.21;100.00
29569;BME280;16501;51.462;14.346;2023-02-14T13:26:12;102103.63;;;4.57;100.00
29569;BME280;16501;51.462;14.346;2023-02-14T13:28:48;102038.63;;;4.10;100.00
29569;BME280;16501;51.462;14.346;2023-02-14T13:31:16;102099.25;;;4.56;100.00
29569;BME280;16501;51.462;14.346;2023-02-14T13:33:49;102133.13;;;4.72;100.00
29569;BME280;16501;51.462;14.346;2023-02-14T13:36:16;102130.38;;;4.76;100.00
29569;BME280;16501;51.462;14.346;2023-02-14T13:38:50;102099.25;;;4.56;100.00
29569;BME280;16501;51.462;14.346;2023-02-14T13:41:19;102115.22;;;4.70;100.00
29569;BME280;16501;51.462;14.346;2023-02-14T13:44:00;102118.44;;;4.72;100.00
29569;BME280;16501;51.462;14.346;2023-02-14T13:51:49;102093.81;;;4.70;100.00
29569;BME280;16501;51.462;14.346;2023-02-14T13:56:56;102110.16;;;4.83;100.00
29569;BME280;16501;51.462;14.346;2023-02-14T13:59:34;102110.53;;;4.78;100.00
29569;BME280;16501;51.462;14.346;2023-02-14T14:04:51;102096.16;;;4.68;100.00
29569;BME280;16501;51.462;14.346;2023-02-14T14:07:25;102089.44;;;4.69;100.00
29569;BME280;16501;51.462;14.346;2023-02-14T14:09:56;102114.56;;;4.91;100.00
29569;BME280;16501;51.462;14.346;2023-02-14T14:20:00;102107.38;;;4.83;100.00
29569;BME280;16501;51.462;14.346;2023-02-14T14:22:27;102105.81;;;4.89;100.00
29569;BME280;16501;51.462;14.346;2023-02-14T14:25:04;102098.03;;;5.23;100.00
29569;BME280;16501;51.462;14.346;2023-02-14T14:27:43;102106.88;;;5.43;100.00
29569;BME280;16501;51.462;14.346;2023-02-14T14:30:24;102101.72;;;5.53;100.00
29569;BME280;16501;51.462;14.346;2023-02-14T14:32:52;102079.38;;;5.24;100.00
29569;BME280;16501;51.462;14.346;2023-02-14T14:35:20;102098.41;;;5.15;100.00
29569;BME280;16501;51.462;14.346;2023-02-14T14:37:53;102099.53;;;5.03;100.00
29569;BME280;16501;51.462;14.346;2023-02-14T14:40:24;102100.28;;;4.96;100.00